GQPA

Atar International Airport

Atar, Mauritania
METAR GQPA 171800Z VRB02KT CAVOK 28/06 Q1014
Observed Flight Rules
Nov-17 @ 18:00 UTC (4 hours ago) Visual Flight Rules
Wind Visibility Clouds
Variable at 2 knots 10,000+ meters
  • Clear skies
Temperatures Readings
Current 28°C / 82°F
Dewpoint 6°C / 43°F
Humidity 25%
Altimeter 29.94" Hg
Pressure 1014 hPa
Elevation 224
METAR GQPA 171800Z VRB02KT CAVOK 28/06 Q1014
Observed Flight Rules
Nov-17 @ 18:00 UTC
(4 hours ago)
VFR
Wind Visibility
Variable at 2 knots 10,000+ meters
Clouds
  • Clear skies
Temperature Dewpoint
28°C / 82°F 6°C / 43°F
Humidity Altimeter Pressure
25% 29.94" Hg 1014 hPa